ข้อมูล



Site ID Timestamp Level Salinity Voltage Current Power Energy AC Power Battery Cabinet SP Failure
IN02 2019-09-22 00:04 0.80 0.56 0.00 0.00 0.00 0.00 OK OK Close Normal
OT03 2019-09-22 00:00 1.47 0.05 227.12 0.12 10.72 69.81 OK OK Close Normal
IN01 2019-09-22 00:00 1.11 0.28 229.11 0.11 9.79 58.27 OK OK Close Normal
OT03 2019-09-22 00:01 1.46 0.00 227.22 0.11 10.82 69.81 OK OK Close Normal
IN01 2019-09-22 00:01 1.11 0.00 229.29 0.11 9.74 58.27 OK OK Close Normal
IN02 2019-09-22 00:06 0.80 0.98 0.00 0.00 0.00 0.00 OK OK Close Normal
IN01 2019-09-22 00:02 1.11 0.28 228.73 0.11 9.76 58.27 OK OK Close Normal
OT03 2019-09-22 00:02 1.46 0.00 226.44 0.11 10.56 69.81 OK OK Close Normal
IN02 2019-09-22 00:07 0.80 0.38 0.00 0.00 0.00 0.00 OK OK Close Normal
OT03 2019-09-22 00:03 1.46 0.09 226.56 0.11 10.82 69.81 OK OK Close Normal
IN01 2019-09-22 00:03 1.11 0.42 229.20 0.11 9.73 58.27 OK OK Close Normal
IN01 2019-09-22 00:04 1.11 0.00 229.52 0.11 9.77 58.27 OK OK Close Normal
OT03 2019-09-22 00:04 1.45 0.00 226.53 0.11 10.69 69.81 OK OK Close Normal
OT03 2019-09-22 00:05 1.43 0.00 226.21 0.11 10.85 69.81 OK OK Close Normal
IN01 2019-09-22 00:05 1.11 0.00 228.35 0.11 9.72 58.27 OK OK Close Normal
IN02 2019-09-22 00:10 0.79 0.70 0.00 0.00 0.00 0.00 OK OK Close Normal
IN01 2019-09-22 00:06 1.11 0.00 229.13 0.11 9.68 58.27 OK OK Close Normal
OT03 2019-09-22 00:06 1.44 0.00 226.60 0.11 10.67 69.81 OK OK Close Normal
IN02 2019-09-22 00:11 0.79 0.80 0.00 0.00 0.00 0.00 OK OK Close Normal
IN01 2019-09-22 00:07 1.10 0.14 229.47 0.11 9.67 58.27 OK OK Close Normal
OT03 2019-09-22 00:07 1.42 0.00 227.17 0.11 10.80 69.81 OK OK Close Normal
OT03 2019-09-22 00:08 1.42 0.14 227.45 0.11 10.73 69.81 OK OK Close Normal
IN01 2019-09-22 00:08 1.11 0.00 229.68 0.11 9.60 58.27 OK OK Close Normal
IN01 2019-09-22 00:09 1.11 0.09 229.57 0.11 9.70 58.27 OK OK Close Normal
OT03 2019-09-22 00:09 1.41 0.00 227.51 0.11 10.87 69.81 OK OK Close Normal
IN01 2019-09-22 00:10 1.11 0.38 229.49 0.11 9.80 58.27 OK OK Close Normal
OT03 2019-09-22 00:10 1.40 0.19 227.51 0.11 10.64 69.81 OK OK Close Normal
OT02 2019-09-22 00:00 1.88 0.00 0.00 0.00 0.00 0.00 OK OK Close Normal
OT03 2019-09-22 00:11 1.40 0.00 228.09 0.12 11.32 69.81 OK OK Close Normal
IN01 2019-09-22 00:11 1.11 0.42 230.53 0.11 9.73 58.27 OK OK Close Normal
OT02 2019-09-22 00:01 1.88 0.14 0.00 0.00 0.00 0.00 OK OK Close Normal
IN02 2019-09-22 00:16 0.77 0.75 0.00 0.00 0.00 0.00 OK OK Close Normal
IN01 2019-09-22 00:12 1.11 0.00 230.03 0.11 9.75 58.27 OK OK Close Normal
OT03 2019-09-22 00:12 1.39 0.00 227.13 0.11 10.61 69.81 OK OK Close Normal
OT02 2019-09-22 00:02 1.86 0.00 0.00 0.00 0.00 0.00 OK OK Close Normal
IN01 2019-09-22 00:13 1.11 0.09 229.03 0.11 9.76 58.27 OK OK Close Normal
OT03 2019-09-22 00:13 1.38 0.05 226.25 0.12 11.73 69.81 OK OK Close Normal
OT02 2019-09-22 00:03 1.86 0.09 0.00 0.00 0.00 0.00 OK OK Close Normal
IN01 2019-09-22 00:14 1.10 0.00 229.06 0.11 9.78 58.27 OK OK Close Normal
OT03 2019-09-22 00:14 1.37 0.23 225.93 0.11 10.60 69.81 OK OK Close Normal
OT02 2019-09-22 00:04 1.86 0.00 0.00 0.00 0.00 0.00 OK OK Close Normal
IN02 2019-09-22 00:19 0.79 0.61 0.00 0.00 0.00 0.00 OK OK Close Normal
IN01 2019-09-22 00:15 1.10 0.00 229.08 0.11 9.70 58.27 OK OK Close Normal
OT03 2019-09-22 00:15 1.37 0.00 226.36 0.12 11.71 69.81 OK OK Close Normal
IN02 2019-09-22 00:20 0.79 0.75 0.00 0.00 0.00 0.00 OK OK Close Normal
OT02 2019-09-22 00:05 1.85 0.23 0.00 0.00 0.00 0.00 OK OK Close Normal
IN01 2019-09-22 00:16 1.10 0.38 229.86 0.11 9.74 58.27 OK OK Close Normal
OT03 2019-09-22 00:16 1.37 0.00 226.92 0.11 10.67 69.81 OK OK Close Normal
IN02 2019-09-22 00:21 0.79 0.80 0.00 0.00 0.00 0.00 OK OK Close Normal
OT02 2019-09-22 00:06 1.86 0.52 0.00 0.00 0.00 0.00 OK OK Close Normal
OT03 2019-09-22 00:17 1.36 0.00 227.34 0.11 11.19 69.81 OK OK Close Normal
IN01 2019-09-22 00:17 1.11 0.23 228.98 0.11 9.70 58.27 OK OK Close Normal
OT02 2019-09-22 00:07 1.84 0.38 0.00 0.00 0.00 0.00 OK OK Close Normal
IN01 2019-09-22 00:18 1.10 0.05 228.43 0.11 9.63 58.27 OK OK Close Normal
OT03 2019-09-22 00:18 1.35 0.00 227.21 0.11 10.65 69.81 OK OK Close Normal
OT02 2019-09-22 00:08 1.82 0.14 0.00 0.00 0.00 0.00 OK OK Close Normal
OT03 2019-09-22 00:19 1.35 0.00 226.88 0.11 10.55 69.81 OK OK Close Normal
IN01 2019-09-22 00:19 1.11 0.19 228.12 0.11 9.79 58.27 OK OK Close Normal
IN02 2019-09-22 00:24 0.77 0.47 0.00 0.00 0.00 0.00 OK OK Close Normal
OT02 2019-09-22 00:09 1.81 0.00 0.00 0.00 0.00 0.00 OK OK Close Normal
IN01 2019-09-22 00:20 1.10 0.00 228.66 0.11 9.73 58.27 OK OK Close Normal
OT03 2019-09-22 00:20 1.35 0.00 227.12 0.11 10.60 69.81 OK OK Close Normal
OT02 2019-09-22 00:10 1.80 0.00 0.00 0.00 0.00 0.00 OK OK Close Normal
IN01 2019-09-22 00:21 1.11 0.05 228.41 0.11 9.72 58.27 OK OK Close Normal
OT03 2019-09-22 00:21 1.35 0.00 226.78 0.11 10.58 69.81 OK OK Close Normal
IN02 2019-09-22 00:26 0.78 0.98 0.00 0.00 0.00 0.00 OK OK Close Normal
OT02 2019-09-22 00:11 1.80 0.09 0.00 0.00 0.00 0.00 OK OK Close Normal
OT03 2019-09-22 00:22 1.32 0.00 227.27 0.11 10.63 69.81 OK OK Close Normal
IN01 2019-09-22 00:22 1.10 0.00 228.44 0.11 9.71 58.27 OK OK Close Normal
OT02 2019-09-22 00:12 1.77 0.33 0.00 0.00 0.00 0.00 OK OK Close Normal
OT03 2019-09-22 00:23 1.33 0.19 227.64 0.11 10.65 69.81 OK OK Close Normal
IN01 2019-09-22 00:23 1.10 0.09 229.28 0.11 9.72 58.27 OK OK Close Normal
IN02 2019-09-22 00:28 0.78 0.80 0.00 0.00 0.00 0.00 OK OK Close Normal
OT02 2019-09-22 00:13 1.77 0.00 0.00 0.00 0.00 0.00 OK OK Close Normal
IN01 2019-09-22 00:24 1.09 0.00 228.71 0.11 9.68 58.27 OK OK Close Normal
OT03 2019-09-22 00:24 1.31 0.00 227.57 0.11 10.57 69.81 OK OK Close Normal
OT02 2019-09-22 00:14 1.77 0.23 0.00 0.00 0.00 0.00 OK OK Close Normal
OT03 2019-09-22 00:25 1.30 0.09 227.31 0.11 10.72 69.81 OK OK Close Normal
IN01 2019-09-22 00:25 1.10 0.09 228.62 0.11 9.70 58.27 OK OK Close Normal
OT02 2019-09-22 00:15 1.76 0.05 0.00 0.00 0.00 0.00 OK OK Close Normal
IN02 2019-09-22 00:30 0.78 0.28 0.00 0.00 0.00 0.00 OK OK Close Normal
IN01 2019-09-22 00:26 1.09 0.23 229.01 0.11 9.67 58.27 OK OK Close Normal
OT03 2019-09-22 00:26 1.30 0.14 227.68 0.11 10.56 69.81 OK OK Close Normal
OT02 2019-09-22 00:16 1.74 0.00 0.00 0.00 0.00 0.00 OK OK Close Normal
IN01 2019-09-22 00:27 1.10 0.05 228.69 0.11 9.67 58.27 OK OK Close Normal
OT03 2019-09-22 00:27 1.29 0.00 227.38 0.11 10.65 69.81 OK OK Close Normal
OT02 2019-09-22 00:17 1.71 0.09 0.00 0.00 0.00 0.00 OK OK Close Normal
IN02 2019-09-22 00:32 0.78 0.84 0.00 0.00 0.00 0.00 OK OK Close Normal
IN01 2019-09-22 00:28 1.10 0.19 230.09 0.11 9.77 58.28 OK OK Close Normal
OT03 2019-09-22 00:28 1.29 0.00 227.74 0.11 10.62 69.82 OK OK Close Normal
OT02 2019-09-22 00:18 1.70 0.23 0.00 0.00 0.00 0.00 OK OK Close Normal
IN02 2019-09-22 00:33 0.78 0.66 0.00 0.00 0.00 0.00 OK OK Close Normal
IN01 2019-09-22 00:29 1.10 0.23 230.03 0.11 9.69 58.28 OK OK Close Normal
OT03 2019-09-22 00:29 1.28 0.00 227.82 0.11 10.51 69.82 OK OK Close Normal
OT02 2019-09-22 00:19 1.69 0.14 0.00 0.00 0.00 0.00 OK OK Close Normal
IN01 2019-09-22 00:30 1.08 0.00 229.78 0.11 9.80 58.28 OK OK Close Normal
OT03 2019-09-22 00:30 1.26 0.00 227.89 0.11 10.70 69.82 OK OK Close Normal
OT02 2019-09-22 00:20 1.73 0.09 0.00 0.00 0.00 0.00 OK OK Close Normal
IN02 2019-09-22 00:35 0.76 1.22 0.00 0.00 0.00 0.00 OK OK Close Normal
OT03 2019-09-22 00:31 1.27 0.23 227.49 0.11 10.50 69.82 OK OK Close Normal
IN01 2019-09-22 00:31 1.10 0.00 229.79 0.11 9.75 58.28 OK OK Close Normal
OT02 2019-09-22 00:21 1.73 0.14 0.00 0.00 0.00 0.00 OK OK Close Normal
IN01 2019-09-22 00:32 1.10 0.14 230.29 0.11 9.66 58.28 OK OK Close Normal
OT03 2019-09-22 00:32 1.25 0.00 227.88 0.11 10.56 69.82 OK OK Close Normal
OT02 2019-09-22 00:22 1.71 0.00 0.00 0.00 0.00 0.00 OK OK Close Normal
IN01 2019-09-22 00:33 1.10 0.19 230.59 0.11 9.77 58.28 OK OK Close Normal
OT03 2019-09-22 00:33 1.26 0.28 227.93 0.11 10.69 69.82 OK OK Close Normal
OT02 2019-09-22 00:23 1.72 0.00 0.00 0.00 0.00 0.00 OK OK Close Normal
IN02 2019-09-22 00:38 0.77 0.66 0.00 0.00 0.00 0.00 OK OK Close Normal
OT03 2019-09-22 00:34 1.26 0.42 227.75 0.11 10.64 69.82 OK OK Close Normal
IN01 2019-09-22 00:34 1.10 0.33 230.12 0.11 9.81 58.28 OK OK Close Normal
OT02 2019-09-22 00:24 1.68 0.00 0.00 0.00 0.00 0.00 OK OK Close Normal
IN02 2019-09-22 00:39 0.75 0.98 0.00 0.00 0.00 0.00 OK OK Close Normal
IN01 2019-09-22 00:35 1.10 0.19 230.26 0.11 9.79 58.28 OK OK Close Normal
OT03 2019-09-22 00:35 1.24 0.47 228.11 0.11 10.62 69.82 OK OK Close Normal
OT02 2019-09-22 00:25 1.71 0.00 0.00 0.00 0.00 0.00 OK OK Close Normal
IN01 2019-09-22 00:36 1.10 0.09 229.91 0.11 9.78 58.28 OK OK Close Normal
OT03 2019-09-22 00:36 1.24 0.00 227.75 0.11 10.60 69.82 OK OK Close Normal
OT02 2019-09-22 00:26 1.70 0.09 0.00 0.00 0.00 0.00 OK OK Close Normal
IN01 2019-09-22 00:37 1.10 0.14 228.98 0.11 9.70 58.28 OK OK Close Normal
OT03 2019-09-22 00:37 1.23 0.09 227.27 0.11 10.49 69.82 OK OK Close Normal
OT02 2019-09-22 00:27 1.70 0.33 0.00 0.00 0.00 0.00 OK OK Close Normal
OT03 2019-09-22 00:38 1.23 0.00 227.06 0.11 10.60 69.82 OK OK Close Normal
IN01 2019-09-22 00:38 1.10 0.52 228.91 0.11 9.74 58.28 OK OK Close Normal
OT02 2019-09-22 00:28 1.69 0.00 0.00 0.00 0.00 0.00 OK OK Close Normal
IN01 2019-09-22 00:39 1.10 0.09 229.45 0.11 9.76 58.28 OK OK Close Normal
OT03 2019-09-22 00:39 1.22 0.05 227.63 0.11 10.69 69.82 OK OK Close Normal
OT02 2019-09-22 00:29 1.67 0.19 0.00 0.00 0.00 0.00 OK OK Close Normal
IN02 2019-09-22 00:44 0.77 0.98 0.00 0.00 0.00 0.00 OK OK Close Normal
IN01 2019-09-22 00:40 1.10 0.09 230.37 0.11 9.69 58.28 OK OK Close Normal
OT03 2019-09-22 00:40 1.22 0.00 228.12 0.11 10.61 69.82 OK OK Close Normal
OT02 2019-09-22 00:30 1.68 0.09 0.00 0.00 0.00 0.00 OK OK Close Normal
IN01 2019-09-22 00:41 1.08 0.23 230.10 0.11 9.82 58.28 OK OK Close Normal
OT03 2019-09-22 00:41 1.21 0.00 227.86 0.11 10.58 69.82 OK OK Close Normal
OT02 2019-09-22 00:31 1.68 0.00 0.00 0.00 0.00 0.00 OK OK Close Normal
IN01 2019-09-22 00:42 1.10 0.00 229.60 0.11 9.73 58.28 OK OK Close Normal
OT03 2019-09-22 00:42 1.19 0.09 227.97 0.11 10.59 69.82 OK OK Close Normal
OT02 2019-09-22 00:32 1.67 0.09 0.00 0.00 0.00 0.00 OK OK Close Normal
IN02 2019-09-22 00:47 0.77 0.89 0.00 0.00 0.00 0.00 OK OK Close Normal
IN01 2019-09-22 00:43 1.10 0.28 229.96 0.11 9.70 58.28 OK OK Close Normal
OT03 2019-09-22 00:43 1.21 0.00 228.01 0.11 10.61 69.82 OK OK Close Normal
IN02 2019-09-22 00:48 0.77 1.08 0.00 0.00 0.00 0.00 OK OK Close Normal
OT02 2019-09-22 00:33 1.66 0.28 0.00 0.00 0.00 0.00 OK OK Close Normal
OT03 2019-09-22 00:44 1.19 0.14 228.40 0.11 10.60 69.82 OK OK Close Normal
IN01 2019-09-22 00:44 1.10 0.33 230.04 0.11 9.76 58.28 OK OK Close Normal
IN02 2019-09-22 00:49 0.76 0.42 8.00 0.00 0.00 0.00 OK OK Close Normal
OT02 2019-09-22 00:34 1.66 0.19 0.00 0.00 0.00 0.00 OK OK Close Normal
IN01 2019-09-22 00:45 1.10 0.14 230.64 0.11 9.81 58.28 OK OK Close Normal
OT03 2019-09-22 00:45 1.17 0.00 228.78 0.11 10.57 69.82 OK OK Close Normal
OT02 2019-09-22 00:35 1.61 0.33 0.00 0.00 0.00 0.00 OK OK Close Normal
OT03 2019-09-22 00:46 1.16 0.09 228.62 0.11 10.54 69.82 OK OK Close Normal
IN01 2019-09-22 00:46 1.08 0.00 230.49 0.11 9.66 58.28 OK OK Close Normal
OT02 2019-09-22 00:36 1.61 0.42 0.00 0.00 0.00 0.00 OK OK Close Normal
OT03 2019-09-22 00:47 1.16 0.00 228.77 0.11 10.51 69.82 OK OK Close Normal
IN01 2019-09-22 00:47 1.10 0.23 230.89 0.11 9.81 58.28 OK OK Close Normal
OT02 2019-09-22 00:37 1.63 0.33 0.00 0.00 0.00 0.00 OK OK Close Normal
IN01 2019-09-22 00:48 1.10 0.42 231.01 0.11 9.67 58.28 OK OK Close Normal
OT03 2019-09-22 00:48 1.16 0.28 228.59 0.11 10.57 69.82 OK OK Close Normal
OT02 2019-09-22 00:38 1.65 0.00 0.00 0.00 0.00 0.00 OK OK Close Normal
IN01 2019-09-22 00:49 1.10 0.09 230.63 0.11 9.64 58.28 OK OK Close Normal
OT03 2019-09-22 00:49 1.15 0.42 228.28 0.11 10.50 69.82 OK OK Close Normal
IN02 2019-09-22 00:54 0.76 0.75 0.00 0.00 0.00 0.00 OK OK Close Normal
OT02 2019-09-22 00:39 1.62 0.47 0.00 0.00 0.00 0.00 OK OK Close Normal
IN01 2019-09-22 00:50 1.09 0.00 230.82 0.11 9.77 58.28 OK OK Close Normal
OT03 2019-09-22 00:50 1.14 0.14 228.33 0.11 10.58 69.82 OK OK Close Normal
IN02 2019-09-22 00:55 0.76 0.70 0.00 0.00 0.00 0.00 OK OK Close Normal
OT02 2019-09-22 00:40 1.63 0.19 0.00 0.00 0.00 0.00 OK OK Close Normal
OT03 2019-09-22 00:51 1.14 0.09 228.19 0.11 10.56 69.82 OK OK Close Normal
IN01 2019-09-22 00:51 1.10 0.00 230.05 0.11 9.73 58.28 OK OK Close Normal
OT02 2019-09-22 00:41 1.62 0.00 0.00 0.00 0.00 0.00 OK OK Close Normal
IN01 2019-09-22 00:52 1.09 0.19 230.38 0.11 9.68 58.28 OK OK Close Normal
OT03 2019-09-22 00:52 1.13 0.00 228.12 0.11 10.55 69.82 OK OK Close Normal
OT02 2019-09-22 00:42 1.62 0.05 0.00 0.00 0.00 0.00 OK OK Close Normal
OT03 2019-09-22 00:53 1.12 0.19 228.13 0.11 10.48 69.82 OK OK Close Normal
IN01 2019-09-22 00:53 1.09 0.00 229.88 0.11 9.81 58.28 OK OK Close Normal
OT02 2019-09-22 00:43 1.60 0.33 0.00 0.00 0.00 0.00 OK OK Close Normal
OT03 2019-09-22 00:54 1.11 0.42 228.74 0.11 10.54 69.82 OK OK Close Normal
IN01 2019-09-22 00:54 1.07 0.42 230.08 0.11 9.77 58.28 OK OK Close Normal
OT02 2019-09-22 00:44 1.56 0.09 0.00 0.00 0.00 0.00 OK OK Close Normal
IN01 2019-09-22 00:55 1.09 0.00 230.16 0.11 9.74 58.28 OK OK Close Normal
OT03 2019-09-22 00:55 1.10 0.38 228.63 0.11 10.59 69.82 OK OK Close Normal
OT02 2019-09-22 00:45 1.58 0.00 0.00 0.00 0.00 0.00 OK OK Close Normal
OT03 2019-09-22 00:56 1.09 0.28 228.28 0.11 10.62 69.82 OK OK Close Normal
IN01 2019-09-22 00:56 1.09 0.05 230.40 0.11 9.75 58.28 OK OK Close Normal
OT02 2019-09-22 00:46 1.60 0.23 0.00 0.00 0.00 0.00 OK OK Close Normal
OT03 2019-09-22 00:57 1.10 0.38 228.43 0.11 10.46 69.82 OK OK Close Normal
IN01 2019-09-22 00:57 1.07 0.00 230.80 0.11 9.75 58.28 OK OK Close Normal
OT02 2019-09-22 00:47 1.57 0.00 0.00 0.00 0.00 0.00 OK OK Close Normal
IN01 2019-09-22 00:58 1.09 0.00 230.51 0.11 9.71 58.28 OK OK Close Normal
OT03 2019-09-22 00:58 1.09 0.42 228.19 0.11 10.50 69.82 OK OK Close Normal
IN02 2019-09-22 01:03 0.74 0.09 0.00 0.00 0.00 0.00 OK OK Close Normal
OT02 2019-09-22 00:48 1.53 0.00 0.00 0.00 0.00 0.00 OK OK Close Normal
OT03 2019-09-22 00:59 1.07 0.61 228.95 0.11 10.56 69.82 OK OK Close Normal
IN01 2019-09-22 00:59 1.09 0.28 230.84 0.11 9.84 58.28 OK OK Close Normal
IN02 2019-09-22 01:04 0.74 1.08 0.00 0.00 0.00 0.00 OK OK Close Normal
OT02 2019-09-22 00:49 1.58 0.00 0.00 0.00 0.00 0.00 OK OK Close Normal
IN01 2019-09-22 01:00 1.09 0.33 230.07 0.11 9.75 58.28 OK OK Close Normal
OT03 2019-09-22 01:00 1.08 0.33 228.42 0.11 10.57 69.82 OK OK Close Normal
OT02 2019-09-22 00:50 1.55 0.33 0.00 0.00 0.00 0.00 OK OK Close Normal
IN01 2019-09-22 01:01 1.09 0.00 229.97 0.11 9.73 58.28 OK OK Close Normal
OT03 2019-09-22 01:01 1.08 0.05 228.45 0.11 10.52 69.82 OK OK Close Normal
OT02 2019-09-22 00:51 1.54 0.00 0.00 0.00 0.00 0.00 OK OK Close Normal
OT03 2019-09-22 01:02 1.08 0.94 228.49 0.11 10.70 69.82 OK OK Close Normal
IN01 2019-09-22 01:02 1.09 0.00 230.30 0.11 9.79 58.28 OK OK Close Normal
IN02 2019-09-22 01:07 0.75 0.94 0.00 0.00 0.00 0.00 OK OK Close Normal
OT02 2019-09-22 00:52 1.49 0.00 0.00 0.00 0.00 0.00 OK OK Close Normal
IN01 2019-09-22 01:03 1.09 0.19 229.84 0.11 9.71 58.28 OK OK Close Normal
OT03 2019-09-22 01:03 1.06 0.47 228.07 0.11 10.58 69.82 OK OK Close Normal
IN02 2019-09-22 01:08 0.74 0.70 0.00 0.00 0.00 0.00 OK OK Close Normal
OT02 2019-09-22 00:53 1.54 0.38 0.00 0.00 0.00 0.00 OK OK Close Normal
IN01 2019-09-22 01:04 1.07 0.33 231.02 0.11 9.75 58.28 OK OK Close Normal
OT03 2019-09-22 01:04 1.06 0.61 228.85 0.11 10.57 69.82 OK OK Close Normal
OT02 2019-09-22 00:54 1.51 0.00 0.00 0.00 0.00 0.00 OK OK Close Normal
IN01 2019-09-22 01:05 1.09 0.00 230.84 0.11 9.67 58.28 OK OK Close Normal
OT03 2019-09-22 01:05 1.06 0.33 228.46 0.11 10.48 69.82 OK OK Close Normal
OT02 2019-09-22 00:55 1.47 0.00 0.00 0.00 0.00 0.00 OK OK Close Normal
IN02 2019-09-22 01:10 0.75 0.52 0.00 0.00 0.00 0.00 OK OK Close Normal
IN01 2019-09-22 01:06 1.09 0.09 230.49 0.11 9.68 58.28 OK OK Close Normal
OT03 2019-09-22 01:06 1.05 0.19 228.45 0.11 10.48 69.82 OK OK Close Normal
OT02 2019-09-22 00:56 1.50 0.09 0.00 0.00 0.00 0.00 OK OK Close Normal
IN01 2019-09-22 01:07 1.09 0.47 230.32 0.11 9.75 58.28 OK OK Close Normal
OT03 2019-09-22 01:07 1.05 0.33 228.58 0.11 10.51 69.82 OK OK Close Normal
OT02 2019-09-22 00:57 1.50 0.28 0.00 0.00 0.00 0.00 OK OK Close Normal
IN02 2019-09-22 01:12 0.73 0.94 0.00 0.00 0.00 0.00 OK OK Close Normal
IN01 2019-09-22 01:08 1.08 0.14 230.34 0.11 9.65 58.28 OK OK Close Normal
OT03 2019-09-22 01:08 1.05 0.33 228.17 0.11 10.67 69.82 OK OK Close Normal
IN02 2019-09-22 01:13 0.75 0.70 0.00 0.00 0.00 0.00 OK OK Close Normal
OT02 2019-09-22 00:58 1.49 0.09 0.00 0.00 0.00 0.00 OK OK Close Normal
IN01 2019-09-22 01:09 1.09 0.33 230.48 0.11 9.74 58.28 OK OK Close Normal
OT03 2019-09-22 01:09 1.04 0.05 228.70 0.11 10.57 69.82 OK OK Close Normal
OT02 2019-09-22 00:59 1.47 0.19 0.00 0.00 0.00 0.00 OK OK Close Normal
OT03 2019-09-22 01:10 1.03 0.47 228.27 0.11 10.47 69.82 OK OK Close Normal
IN01 2019-09-22 01:10 1.08 0.05 230.32 0.11 9.69 58.28 OK OK Close Normal
OT02 2019-09-22 01:00 1.46 0.00 0.00 0.00 0.00 0.00 OK OK Close Normal
IN01 2019-09-22 01:11 1.08 0.00 229.94 0.11 9.62 58.28 OK OK Close Normal
OT03 2019-09-22 01:11 1.04 0.66 228.45 0.11 10.58 69.82 OK OK Close Normal
OT02 2019-09-22 01:01 1.46 0.00 0.00 0.00 0.00 0.00 OK OK Close Normal
IN01 2019-09-22 01:12 1.08 0.19 229.98 0.11 9.74 58.28 OK OK Close Normal
OT03 2019-09-22 01:12 1.02 0.19 228.10 0.11 10.55 69.82 OK OK Close Normal
OT02 2019-09-22 01:02 1.47 0.00 0.00 0.00 0.00 0.00 OK OK Close Normal
IN01 2019-09-22 01:13 1.09 0.23 230.20 0.11 9.71 58.28 OK OK Close Normal
OT03 2019-09-22 01:13 1.01 0.42 228.11 0.11 10.47 69.82 OK OK Close Normal
OT02 2019-09-22 01:03 1.44 0.09 0.00 0.00 0.00 0.00 OK OK Close Normal
IN01 2019-09-22 01:14 1.08 0.14 230.35 0.11 9.68 58.28 OK OK Close Normal
OT03 2019-09-22 01:14 0.99 0.42 228.40 0.11 10.55 69.82 OK OK Close Normal
OT02 2019-09-22 01:04 1.45 0.09 0.00 0.00 0.00 0.00 OK OK Close Normal
IN02 2019-09-22 01:19 0.72 0.56 0.00 0.00 0.00 0.00 OK OK Close Normal
IN01 2019-09-22 01:15 1.08 0.05 231.05 0.11 9.70 58.28 OK OK Close Normal
OT03 2019-09-22 01:15 1.00 0.66 229.23 0.11 10.46 69.82 OK OK Close Normal
IN02 2019-09-22 01:20 0.72 0.98 0.00 0.00 0.00 0.00 OK OK Close Normal
OT02 2019-09-22 01:05 1.42 0.00 0.00 0.00 0.00 0.00 OK OK Close Normal
IN01 2019-09-22 01:16 1.08 0.09 230.81 0.11 9.75 58.28 OK OK Close Normal
OT03 2019-09-22 01:16 1.00 0.66 228.85 0.11 10.44 69.82 OK OK Close Normal
IN02 2019-09-22 01:21 0.74 0.98 0.00 0.00 0.00 0.00 OK OK Close Normal
OT02 2019-09-22 01:06 1.40 0.09 0.00 0.00 0.00 0.00 OK OK Close Normal
IN01 2019-09-22 01:17 1.08 0.28 230.26 0.11 9.75 58.28 OK OK Close Normal
OT03 2019-09-22 01:17 0.98 0.23 228.30 0.11 10.54 69.82 OK OK Close Normal
IN02 2019-09-22 01:22 0.71 0.61 0.00 0.00 0.00 0.00 OK OK Close Normal
OT02 2019-09-22 01:07 1.39 0.00 0.00 0.00 0.00 0.00 OK OK Close Normal
OT03 2019-09-22 01:18 1.00 0.33 228.28 0.11 10.51 69.82 OK OK Close Normal
IN01 2019-09-22 01:18 1.08 0.23 230.20 0.11 9.71 58.28 OK OK Close Normal
IN02 2019-09-22 01:23 0.74 0.80 0.00 0.00 0.00 0.00 OK OK Close Normal
OT02 2019-09-22 01:08 1.44 0.23 0.00 0.00 0.00 0.00 OK OK Close Normal
IN01 2019-09-22 01:19 1.07 0.28 229.94 0.11 9.72 58.28 OK OK Close Normal
OT03 2019-09-22 01:19 0.98 0.23 228.22 0.11 10.52 69.82 OK OK Close Normal
OT02 2019-09-22 01:09 1.43 0.09 0.00 0.00 0.00 0.00 OK OK Close Normal
IN01 2019-09-22 01:20 1.08 0.14 230.39 0.11 9.70 58.28 OK OK Close Normal
OT03 2019-09-22 01:20 0.97 0.42 228.76 0.11 10.48 69.82 OK OK Close Normal
OT02 2019-09-22 01:10 1.43 0.00 0.00 0.00 0.00 0.00 OK OK Close Normal
IN01 2019-09-22 01:21 1.08 0.00 231.03 0.11 9.75 58.28 OK OK Close Normal
OT03 2019-09-22 01:21 0.97 0.52 228.74 0.11 10.57 69.82 OK OK Close Normal
OT02 2019-09-22 01:11 1.43 0.14 0.00 0.00 0.00 0.00 OK OK Close Normal
OT03 2019-09-22 01:22 0.95 0.33 228.52 0.11 10.49 69.82 OK OK Close Normal
IN01 2019-09-22 01:22 1.08 0.00 230.58 0.11 9.74 58.28 OK OK Close Normal
OT02 2019-09-22 01:12 1.42 0.00 0.00 0.00 0.00 0.00 OK OK Close Normal
IN01 2019-09-22 01:23 1.08 0.14 231.03 0.11 9.63 58.28 OK OK Close Normal
OT03 2019-09-22 01:23 0.95 0.28 228.98 0.11 10.52 69.82 OK OK Close Normal
IN02 2019-09-22 01:28 0.73 1.08 0.00 0.00 0.00 0.00 OK OK Close Normal
OT02 2019-09-22 01:13 1.38 0.14 0.00 0.00 0.00 0.00 OK OK Close Normal
IN01 2019-09-22 01:24 1.08 0.28 230.64 0.11 9.77 58.28 OK OK Close Normal
OT03 2019-09-22 01:24 0.95 0.47 228.43 0.11 10.52 69.82 OK OK Close Normal
OT02 2019-09-22 01:14 1.40 0.05 0.00 0.00 0.00 0.00 OK OK Close Normal
IN01 2019-09-22 01:25 1.08 0.52 230.70 0.11 9.63 58.28 OK OK Close Normal
OT03 2019-09-22 01:25 0.95 0.56 228.68 0.11 10.60 69.82 OK OK Close Normal
OT02 2019-09-22 01:15 1.41 0.00 0.00 0.00 0.00 0.00 OK OK Close Normal
IN01 2019-09-22 01:26 1.07 0.14 231.15 0.11 9.83 58.28 OK OK Close Normal
OT03 2019-09-22 01:26 0.93 0.47 228.80 0.11 10.46 69.82 OK OK Close Normal
OT02 2019-09-22 01:16 1.39 0.00 0.00 0.00 0.00 0.00 OK OK Close Normal
IN02 2019-09-22 01:31 0.72 0.98 0.00 0.00 0.00 0.00 OK OK Close Normal
IN01 2019-09-22 01:27 1.06 0.38 230.90 0.11 9.90 58.28 OK OK Close Normal
OT03 2019-09-22 01:27 0.94 0.33 228.73 0.11 10.57 69.82 OK OK Close Normal
IN02 2019-09-22 01:32 0.72 0.23 0.00 0.00 0.00 0.00 OK OK Close Normal
OT02 2019-09-22 01:17 1.39 0.00 0.00 0.00 0.00 0.00 OK OK Close Normal
OT03 2019-09-22 01:28 0.92 0.61 229.16 0.11 10.55 69.82 OK OK Close Normal
IN01 2019-09-22 01:28 1.06 0.38 230.84 0.11 9.71 58.28 OK OK Close Normal
OT02 2019-09-22 01:18 1.39 0.00 0.00 0.00 0.00 0.00 OK OK Close Normal
IN01 2019-09-22 01:29 1.08 0.00 230.97 0.11 9.74 58.28 OK OK Close Normal
OT03 2019-09-22 01:29 0.92 0.19 228.76 0.11 10.55 69.82 OK OK Close Normal
OT02 2019-09-22 01:19 1.39 0.19 0.00 0.00 0.00 0.00 OK OK Close Normal
IN01 2019-09-22 01:30 1.05 0.19 230.48 0.11 9.78 58.28 OK OK Close Normal
OT03 2019-09-22 01:30 0.91 0.52 228.78 0.11 10.55 69.82 OK OK Close Normal
OT02 2019-09-22 01:20 1.38 0.00 0.00 0.00 0.00 0.00 OK OK Close Normal
IN02 2019-09-22 01:35 0.73 0.52 0.00 0.00 0.00 0.00 OK OK Close Normal
IN01 2019-09-22 01:31 1.08 0.23 230.45 0.11 9.66 58.28 OK OK Close Normal
OT03 2019-09-22 01:31 0.91 0.70 228.52 0.11 10.48 69.83 OK OK Close Normal
OT02 2019-09-22 01:21 1.38 0.00 0.00 0.00 0.00 0.00 OK OK Close Normal
IN01 2019-09-22 01:32 1.08 0.14 230.34 0.11 9.69 58.28 OK OK Close Normal
OT03 2019-09-22 01:32 0.90 0.70 228.74 0.11 10.39 69.83 OK OK Close Normal
OT02 2019-09-22 01:22 1.36 0.19 0.00 0.00 0.00 0.00 OK OK Close Normal
IN01 2019-09-22 01:33 1.07 0.00 230.83 0.11 9.67 58.28 OK OK Close Normal
OT03 2019-09-22 01:33 0.89 0.23 229.12 0.11 10.40 69.83 OK OK Close Normal
OT02 2019-09-22 01:23 1.35 0.19 0.00 0.00 0.00 0.00 OK OK Close Normal
OT03 2019-09-22 01:34 0.89 0.38 228.39 0.11 10.54 69.83 OK OK Close Normal
IN01 2019-09-22 01:34 1.08 0.09 229.94 0.11 9.69 58.28 OK OK Close Normal
OT02 2019-09-22 01:24 1.35 0.00 0.00 0.00 0.00 0.00 OK OK Close Normal
OT03 2019-09-22 01:35 0.89 0.23 228.90 0.11 10.46 69.83 OK OK Close Normal
IN01 2019-09-22 01:35 1.07 0.28 230.13 0.11 9.71 58.28 OK OK Close Normal
OT02 2019-09-22 01:25 1.35 0.00 0.00 0.00 0.00 0.00 OK OK Close Normal
OT03 2019-09-22 01:36 0.88 0.14 229.18 0.11 10.44 69.83 OK OK Close Normal
IN01 2019-09-22 01:36 1.07 0.23 230.78 0.11 9.63 58.29 OK OK Close Normal
OT02 2019-09-22 01:26 1.30 0.00 0.00 0.00 0.00 0.00 OK OK Close Normal
IN02 2019-09-22 01:41 0.72 0.70 0.00 0.00 0.00 0.00 OK OK Close Normal
IN01 2019-09-22 01:37 1.07 0.09 230.35 0.11 9.71 58.29 OK OK Close Normal
OT03 2019-09-22 01:37 0.88 0.47 228.82 0.11 10.46 69.83 OK OK Close Normal
OT02 2019-09-22 01:27 1.33 0.00 0.00 0.00 0.00 0.00 OK OK Close Normal
IN01 2019-09-22 01:38 1.07 0.19 230.36 0.11 9.71 58.29 OK OK Close Normal
OT03 2019-09-22 01:38 0.87 0.94 228.35 0.11 10.58 69.83 OK OK Close Normal
OT02 2019-09-22 01:28 1.32 0.00 0.00 0.00 0.00 0.00 OK OK Close Normal
OT03 2019-09-22 01:39 0.85 0.52 228.97 0.11 10.40 69.83 OK OK Close Normal
IN01 2019-09-22 01:39 1.07 0.19 230.86 0.11 9.75 58.29 OK OK Close Normal
OT02 2019-09-22 01:29 1.33 0.09 0.00 0.00 0.00 0.00 OK OK Close Normal
IN02 2019-09-22 01:44 0.72 0.89 0.00 0.00 0.00 0.00 OK OK Close Normal
IN01 2019-09-22 01:40 1.07 0.23 230.52 0.11 9.59 58.29 OK OK Close Normal
OT03 2019-09-22 01:40 0.89 0.14 229.22 0.11 10.53 69.83 OK OK Close Normal
OT02 2019-09-22 01:30 1.31 0.14 0.00 0.00 0.00 0.00 OK OK Close Normal
IN02 2019-09-22 01:45 0.72 0.75 0.00 0.00 0.00 0.00 OK OK Close Normal
IN01 2019-09-22 01:41 1.07 0.28 230.65 0.11 9.70 58.29 OK OK Close Normal
OT03 2019-09-22 01:41 0.84 0.47 229.25 0.11 10.43 69.83 OK OK Close Normal
OT02 2019-09-22 01:31 1.30 0.00 0.00 0.00 0.00 0.00 OK OK Close Normal
IN01 2019-09-22 01:42 1.07 0.33 231.43 0.11 9.68 58.29 OK OK Close Normal
OT03 2019-09-22 01:42 0.87 0.42 229.58 0.11 10.42 69.83 OK OK Close Normal
OT02 2019-09-22 01:32 1.32 0.28 0.00 0.00 0.00 0.00 OK OK Close Normal
IN02 2019-09-22 01:47 0.71 0.61 0.00 0.00 0.00 0.00 OK OK Close Normal
IN01 2019-09-22 01:43 1.06 0.23 231.11 0.11 9.81 58.29 OK OK Close Normal
OT03 2019-09-22 01:43 0.89 0.33 229.09 0.11 10.46 69.83 OK OK Close Normal
OT02 2019-09-22 01:33 1.30 0.19 0.00 0.00 0.00 0.00 OK OK Close Normal
IN01 2019-09-22 01:44 1.06 0.28 231.42 0.11 9.80 58.29 OK OK Close Normal
OT03 2019-09-22 01:44 0.85 0.66 229.19 0.11 10.47 69.83 OK OK Close Normal
OT02 2019-09-22 01:34 1.31 0.00 0.00 0.00 0.00 0.00 OK OK Close Normal
IN02 2019-09-22 01:49 0.71 1.08 0.00 0.00 0.00 0.00 OK OK Close Normal
IN01 2019-09-22 01:45 1.06 0.00 230.94 0.11 9.67 58.29 OK OK Close Normal
OT03 2019-09-22 01:45 0.90 0.23 229.50 0.11 10.56 69.83 OK OK Close Normal
OT02 2019-09-22 01:35 1.26 0.00 0.00 0.00 0.00 0.00 OK OK Close Normal
IN02 2019-09-22 01:50 0.71 0.80 0.00 0.00 0.00 0.00 OK OK Close Normal
IN01 2019-09-22 01:46 1.06 0.14 230.94 0.11 9.76 58.29 OK OK Close Normal
OT03 2019-09-22 01:46 0.84 0.61 229.31 0.11 10.49 69.83 OK OK Close Normal
OT02 2019-09-22 01:36 1.28 0.00 0.00 0.00 0.00 0.00 OK OK Close Normal
IN02 2019-09-22 01:51 0.71 0.38 0.00 0.00 0.00 0.00 OK OK Close Normal
OT03 2019-09-22 01:47 0.86 0.61 229.03 0.11 10.55 69.83 OK OK Close Normal
IN01 2019-09-22 01:47 1.06 0.61 231.04 0.11 9.71 58.29 OK OK Close Normal
OT02 2019-09-22 01:37 1.28 0.00 0.00 0.00 0.00 0.00 OK OK Close Normal
IN01 2019-09-22 01:48 1.06 0.09 230.87 0.11 9.76 58.29 OK OK Close Normal
OT03 2019-09-22 01:48 0.85 0.42 229.19 0.11 10.40 69.83 OK OK Close Normal
OT02 2019-09-22 01:38 1.29 0.61 0.00 0.00 0.00 0.00 OK OK Close Normal
IN02 2019-09-22 01:53 0.71 1.08 0.00 0.00 0.00 0.00 OK OK Close Normal
IN01 2019-09-22 01:49 1.07 0.14 231.42 0.11 9.71 58.29 OK OK Close Normal
OT03 2019-09-22 01:49 0.83 0.61 229.86 0.11 10.47 69.83 OK OK Close Normal
OT02 2019-09-22 01:39 1.22 0.00 0.00 0.00 0.00 0.00 OK OK Close Normal
OT03 2019-09-22 01:50 0.83 0.33 229.31 0.11 10.48 69.83 OK OK Close Normal
IN01 2019-09-22 01:50 1.06 0.00 231.42 0.11 9.63 58.29 OK OK Close Normal
OT02 2019-09-22 01:40 1.26 0.14 0.00 0.00 0.00 0.00 OK OK Close Normal
OT03 2019-09-22 01:51 0.83 0.38 229.42 0.11 10.35 69.83 OK OK Close Normal
IN01 2019-09-22 01:51 1.06 0.00 231.27 0.11 10.34 58.29 OK OK Close Normal
OT02 2019-09-22 01:41 1.25 0.19 0.00 0.00 0.00 0.00 OK OK Close Normal
IN01 2019-09-22 01:52 1.06 0.00 230.86 0.11 9.80 58.29 OK OK Close Normal
OT03 2019-09-22 01:52 0.83 0.28 229.40 0.11 10.58 69.83 OK OK Close Normal
OT02 2019-09-22 01:42 1.24 0.05 0.00 0.00 0.00 0.00 OK OK Close Normal
IN01 2019-09-22 01:53 1.06 0.00 230.28 0.11 9.72 58.29 OK OK Close Normal
OT03 2019-09-22 01:53 0.82 0.70 228.99 0.11 10.34 69.83 OK OK Close Normal
OT02 2019-09-22 01:43 1.25 0.00 0.00 0.00 0.00 0.00 OK OK Close Normal
OT03 2019-09-22 01:54 0.83 0.14 229.74 0.11 10.44 69.83 OK OK Close Normal
IN01 2019-09-22 01:54 1.06 0.19 230.59 0.11 9.69 58.29 OK OK Close Normal
OT02 2019-09-22 01:44 1.24 0.28 0.00 0.00 0.00 0.00 OK OK Close Normal
IN01 2019-09-22 01:55 1.04 0.00 231.05 0.11 9.65 58.29 OK OK Close Normal
OT03 2019-09-22 01:55 0.82 0.33 229.48 0.11 10.46 69.83 OK OK Close Normal
OT02 2019-09-22 01:45 1.20 0.33 0.00 0.00 0.00 0.00 OK OK Close Normal
IN01 2019-09-22 01:56 1.06 0.05 231.08 0.11 9.71 58.29 OK OK Close Normal
OT03 2019-09-22 01:56 0.83 0.23 229.47 0.11 10.47 69.83 OK OK Close Normal
OT02 2019-09-22 01:46 1.22 0.28 0.00 0.00 0.00 0.00 OK OK Close Normal
IN01 2019-09-22 01:57 1.06 0.28 231.71 0.11 9.59 58.29 OK OK Close Normal
OT03 2019-09-22 01:57 0.83 0.42 229.79 0.11 10.54 69.83 OK OK Close Normal
OT02 2019-09-22 01:47 1.22 0.47 0.00 0.00 0.00 0.00 OK OK Close Normal
OT03 2019-09-22 01:58 0.82 0.52 229.01 0.11 10.41 69.83 OK OK Close Normal
IN01 2019-09-22 01:58 1.05 0.00 230.71 0.11 9.69 58.29 OK OK Close Normal
OT02 2019-09-22 01:48 1.22 0.47 0.00 0.00 0.00 0.00 OK OK Close Normal
OT03 2019-09-22 01:59 0.80 0.61 229.94 0.11 10.40 69.83 OK OK Close Normal
IN01 2019-09-22 01:59 1.05 0.56 231.57 0.11 9.78 58.29 OK OK Close Normal
OT02 2019-09-22 01:49 1.20 0.23 0.00 0.00 0.00 0.00 OK OK Close Normal
IN01 2019-09-22 02:00 1.06 0.52 229.68 0.11 9.76 58.29 OK OK Close Normal
OT03 2019-09-22 02:00 0.80 0.61 227.68 0.11 10.45 69.83 OK OK Close Normal
OT02 2019-09-22 01:50 1.19 0.00 0.00 0.00 0.00 0.00 OK OK Close Normal
IN01 2019-09-22 02:01 1.05 0.05 229.22 0.11 9.73 58.29 OK OK Close Normal
OT03 2019-09-22 02:01 0.79 0.70 227.37 0.11 10.46 69.83 OK OK Close Normal
OT02 2019-09-22 01:51 1.19 0.33 0.00 0.00 0.00 0.00 OK OK Close Normal
IN01 2019-09-22 02:02 1.06 0.23 229.49 0.11 9.69 58.29 OK OK Close Normal
OT03 2019-09-22 02:02 0.82 0.38 227.55 0.11 10.54 69.83 OK OK Close Normal
OT02 2019-09-22 01:52 1.13 0.05 0.00 0.00 0.00 0.00 OK OK Close Normal
IN01 2019-09-22 02:03 1.06 0.00 229.21 0.11 9.67 58.29 OK OK Close Normal
OT03 2019-09-22 02:03 0.80 0.56 227.24 0.11 10.44 69.83 OK OK Close Normal
OT02 2019-09-22 01:53 1.15 0.00 0.00 0.00 0.00 0.00 OK OK Close Normal
IN01 2019-09-22 02:04 1.05 0.14 228.68 0.11 9.65 58.29 OK OK Close Normal
OT03 2019-09-22 02:04 0.79 0.80 227.06 0.11 10.47 69.83 OK OK Close Normal
OT02 2019-09-22 01:54 1.18 0.00 0.00 0.00 0.00 0.00 OK OK Close Normal
IN01 2019-09-22 02:05 1.05 0.00 229.08 0.11 9.75 58.29 OK OK Close Normal
OT03 2019-09-22 02:05 0.77 0.42 226.90 0.11 10.32 69.83 OK OK Close Normal
OT02 2019-09-22 01:55 1.11 0.05 0.00 0.00 0.00 0.00 OK OK Close Normal
IN01 2019-09-22 02:06 1.06 0.19 229.04 0.11 9.70 58.29 OK OK Close Normal
OT03 2019-09-22 02:06 0.75 0.84 227.03 0.11 10.39 69.83 OK OK Close Normal
OT02 2019-09-22 01:56 1.16 0.33 0.00 0.00 0.00 0.00 OK OK Close Normal
OT03 2019-09-22 02:07 0.71 0.80 226.72 0.11 10.41 69.83 OK OK Close Normal
IN01 2019-09-22 02:07 1.04 0.00 228.01 0.11 9.58 58.29 OK OK Close Normal
OT02 2019-09-22 01:57 1.16 0.00 0.00 0.00 0.00 0.00 OK OK Close Normal
OT03 2019-09-22 02:08 1.05 0.52 226.68 0.11 10.67 69.83 OK OK Close Normal
IN01 2019-09-22 02:08 1.05 0.23 228.46 0.11 9.60 58.29 OK OK Close Normal
OT02 2019-09-22 01:58 1.11 0.09 0.00 0.00 0.00 0.00 OK OK Close Normal
IN01 2019-09-22 02:09 1.05 0.00 228.27 0.11 9.66 58.29 OK OK Close Normal
OT03 2019-09-22 02:09 1.04 0.66 226.88 0.11 10.56 69.83 OK OK Close Normal
OT02 2019-09-22 01:59 1.15 0.00 0.00 0.00 0.00 0.00 OK OK Close Normal
IN01 2019-09-22 02:10 1.05 0.38 228.53 0.11 9.66 58.29 OK OK Close Normal
OT03 2019-09-22 02:10 0.65 0.52 227.30 0.11 10.43 69.83 OK OK Close Normal
OT02 2019-09-22 02:00 1.14 0.23 0.00 0.00 0.00 0.00 OK OK Close Normal
OT03 2019-09-22 02:11 0.66 0.75 226.83 0.11 10.32 69.83 OK OK Close Normal
IN01 2019-09-22 02:11 1.05 0.28 228.32 0.11 9.69 58.29 OK OK Close Normal
OT02 2019-09-22 02:01 1.14 0.05 0.00 0.00 0.00 0.00 OK OK Close Normal
IN02 2019-09-22 02:16 0.68 0.98 0.00 0.00 0.00 0.00 OK OK Close Normal
OT03 2019-09-22 02:12 0.66 0.56 226.26 0.11 10.49 69.83 OK OK Close Normal
IN01 2019-09-22 02:12 1.05 0.09 227.78 0.11 9.60 58.29 OK OK Close Normal
OT02 2019-09-22 02:02 1.11 0.28 0.00 0.00 0.00 0.00 OK OK Close Normal
IN02 2019-09-22 02:17 0.68 0.89 0.00 0.00 0.00 0.00 OK OK Close Normal
IN01 2019-09-22 02:13 1.05 0.52 228.35 0.11 9.72 58.29 OK OK Close Normal
OT03 2019-09-22 02:13 0.66 1.08 226.91 0.11 10.38 69.83 OK OK Close Normal
IN02 2019-09-22 02:18 0.68 0.19 0.00 0.00 0.00 0.00 OK OK Close Normal
OT02 2019-09-22 02:03 1.09 0.38 0.00 0.00 0.00 0.00 OK OK Close Normal
OT03 2019-09-22 02:14 0.65 0.75 226.77 0.11 10.39 69.83 OK OK Close Normal
IN01 2019-09-22 02:14 1.05 0.28 228.13 0.11 9.73 58.29 OK OK Close Normal
OT02 2019-09-22 02:04 1.12 0.19 0.00 0.00 0.00 0.00 OK OK Close Normal
IN02 2019-09-22 02:19 0.66 0.84 0.00 0.00 0.00 0.00 OK OK Close Normal
OT03 2019-09-22 02:15 0.64 0.70 227.21 0.11 10.37 69.83 OK OK Close Normal
IN01 2019-09-22 02:15 1.05 0.23 228.36 0.11 9.73 58.29 OK OK Close Normal
OT02 2019-09-22 02:05 1.12 0.23 0.00 0.00 0.00 0.00 OK OK Close Normal
OT03 2019-09-22 02:16 0.64 0.89 226.48 0.11 10.41 69.83 OK OK Close Normal
IN01 2019-09-22 02:16 1.04 0.19 228.46 0.11 9.71 58.29 OK OK Close Normal
IN02 2019-09-22 02:21 0.68 0.61 0.00 0.00 0.00 0.00 OK OK Close Normal
OT02 2019-09-22 02:06 1.12 0.00 0.00 0.00 0.00 0.00 OK OK Close Normal
IN01 2019-09-22 02:17 1.04 0.00 227.54 0.11 9.62 58.29 OK OK Close Normal
OT03 2019-09-22 02:17 0.63 0.75 226.56 0.11 10.37 69.83 OK OK Close Normal
OT02 2019-09-22 02:07 1.12 0.00 0.00 0.00 0.00 0.00 OK OK Close Normal
IN01 2019-09-22 02:18 1.05 0.00 228.75 0.11 9.77 58.29 OK OK Close Normal
OT03 2019-09-22 02:18 0.64 0.75 227.24 0.11 10.49 69.83 OK OK Close Normal
IN02 2019-09-22 02:23 0.68 0.42 0.00 0.00 0.00 0.00 OK OK Close Normal
OT02 2019-09-22 02:08 1.12 0.00 0.00 0.00 0.00 0.00 OK OK Close Normal
OT03 2019-09-22 02:19 0.62 1.03 226.90 0.11 10.29 69.83 OK OK Close Normal
IN01 2019-09-22 02:19 1.04 0.28 228.62 0.11 9.70 58.29 OK OK Close Normal
OT02 2019-09-22 02:09 1.10 0.00 0.00 0.00 0.00 0.00 OK OK Close Normal
OT03 2019-09-22 02:20 0.62 0.66 226.96 0.11 10.58 69.83 OK OK Close Normal
IN01 2019-09-22 02:20 1.03 0.14 228.20 0.11 9.61 58.29 OK OK Close Normal
OT02 2019-09-22 02:10 1.11 0.47 0.00 0.00 0.00 0.00 OK OK Close Normal
IN02 2019-09-22 02:25 0.68 0.75 0.00 0.00 0.00 0.00 OK OK Close Normal
IN01 2019-09-22 02:21 1.03 0.00 228.36 0.11 9.64 58.29 OK OK Close Normal
OT03 2019-09-22 02:21 0.62 0.52 226.77 0.11 10.40 69.83 OK OK Close Normal
OT02 2019-09-22 02:11 1.10 0.00 0.00 0.00 0.00 0.00 OK OK Close Normal
OT03 2019-09-22 02:22 0.62 0.52 226.59 0.11 10.83 69.83 OK OK Close Normal
IN01 2019-09-22 02:22 1.04 0.00 228.22 0.11 9.64 58.29 OK OK Close Normal
OT02 2019-09-22 02:12 1.10 0.38 0.00 0.00 0.00 0.00 OK OK Close Normal
OT03 2019-09-22 02:23 0.62 0.75 227.08 0.11 10.41 69.83 OK OK Close Normal
IN01 2019-09-22 02:23 1.04 0.14 229.23 0.11 9.63 58.29 OK OK Close Normal
OT02 2019-09-22 02:13 1.02 0.09 0.00 0.00 0.00 0.00 OK OK Close Normal
OT03 2019-09-22 02:24 0.63 0.89 226.30 0.11 11.01 69.83 OK OK Close Normal
IN01 2019-09-22 02:24 1.04 0.14 227.65 0.11 9.68 58.29 OK OK Close Normal
OT02 2019-09-22 02:14 1.07 0.14 0.00 0.00 0.00 0.00 OK OK Close Normal
IN01 2019-09-22 02:25 1.02 0.14 227.97 0.11 9.59 58.29 OK OK Close Normal
OT03 2019-09-22 02:25 0.60 0.75 227.07 0.11 10.50 69.83 OK OK Close Normal
OT02 2019-09-22 02:15 1.02 0.05 0.00 0.00 0.00 0.00 OK OK Close Normal
OT03 2019-09-22 02:26 0.60 0.80 227.17 0.12 11.40 69.83 OK OK Close Normal
IN01 2019-09-22 02:26 1.04 0.14 228.58 0.11 9.70 58.29 OK OK Close Normal
OT02 2019-09-22 02:16 1.05 0.09 0.00 0.00 0.00 0.00 OK OK Close Normal
IN02 2019-09-22 02:31 0.67 0.61 0.00 0.00 0.00 0.00 OK OK Close Normal
OT03 2019-09-22 02:27 0.61 0.84 226.94 0.11 10.44 69.83 OK OK Close Normal
IN01 2019-09-22 02:27 1.04 0.14 228.36 0.11 9.61 58.29 OK OK Close Normal
IN02 2019-09-22 02:32 0.65 1.03 0.00 0.00 0.00 0.00 OK OK Close Normal
OT02 2019-09-22 02:17 1.06 0.05 0.00 0.00 0.00 0.00 OK OK Close Normal
OT03 2019-09-22 02:28 0.61 0.70 227.38 0.11 11.05 69.84 OK OK Close Normal
IN01 2019-09-22 02:28 1.04 0.14 228.46 0.11 9.64 58.29 OK OK Close Normal
OT02 2019-09-22 02:18 1.04 0.23 0.00 0.00 0.00 0.00 OK OK Close Normal
IN01 2019-09-22 02:29 1.04 0.66 228.34 0.11 9.64 58.29 OK OK Close Normal
OT03 2019-09-22 02:29 0.57 0.98 226.90 0.11 10.28 69.84 OK OK Close Normal
OT02 2019-09-22 02:19 1.03 0.00 0.00 0.00 0.00 0.00 OK OK Close Normal
OT03 2019-09-22 02:30 0.58 0.66 227.32 0.11 10.31 69.84 OK OK Close Normal
IN01 2019-09-22 02:30 1.04 0.52 228.68 0.11 9.69 58.29 OK OK Close Normal
OT02 2019-09-22 02:20 1.10 0.28 0.00 0.00 0.00 0.00 OK OK Close Normal
IN01 2019-09-22 02:31 1.04 0.28 229.08 0.11 9.78 58.29 OK OK Close Normal
OT03 2019-09-22 02:31 0.56 0.80 227.43 0.11 10.36 69.84 OK OK Close Normal
OT02 2019-09-22 02:21 1.06 0.38 0.00 0.00 0.00 0.00 OK OK Close Normal
IN02 2019-09-22 02:36 0.65 0.89 0.00 0.00 0.00 0.00 OK OK Close Normal
OT03 2019-09-22 02:32 0.57 0.94 227.14 0.11 10.32 69.84 OK OK Close Normal
IN01 2019-09-22 02:32 1.04 0.05 228.69 0.11 9.59 58.29 OK OK Close Normal
OT02 2019-09-22 02:22 1.04 0.00 0.00 0.00 0.00 0.00 OK OK Close Normal
IN01 2019-09-22 02:33 1.04 0.09 228.22 0.11 9.65 58.29 OK OK Close Normal
OT03 2019-09-22 02:33 0.55 0.61 226.85 0.11 10.39 69.84 OK OK Close Normal
OT02 2019-09-22 02:23 1.03 0.05 0.00 0.00 0.00 0.00 OK OK Close Normal
IN01 2019-09-22 02:34 1.04 0.42 227.96 0.11 9.70 58.29 OK OK Close Normal
OT03 2019-09-22 02:34 0.56 0.52 226.88 0.11 10.29 69.84 OK OK Close Normal
OT02 2019-09-22 02:24 1.04 0.00 0.00 0.00 0.00 0.00 OK OK Close Normal
IN02 2019-09-22 02:39 0.66 0.94 0.00 0.00 0.00 0.00 OK OK Close Normal
OT03 2019-09-22 02:35 0.53 0.61 226.76 0.11 10.27 69.84 OK OK Close Normal
IN01 2019-09-22 02:35 1.04 0.23 228.57 0.11 9.69 58.29 OK OK Close Normal
OT02 2019-09-22 02:25 1.03 0.09 0.00 0.00 0.00 0.00 OK OK Close Normal
IN02 2019-09-22 02:40 0.66 0.56 0.00 0.00 0.00 0.00 OK OK Close Normal
IN01 2019-09-22 02:36 1.01 0.00 228.66 0.11 9.66 58.29 OK OK Close Normal
OT03 2019-09-22 02:36 0.54 0.56 227.39 0.11 10.31 69.84 OK OK Close Normal
OT02 2019-09-22 02:26 1.01 0.23 0.00 0.00 0.00 0.00 OK OK Close Normal
IN01 2019-09-22 02:37 1.01 0.33 229.14 0.11 9.69 58.29 OK OK Close Normal
OT03 2019-09-22 02:37 0.56 0.75 227.79 0.11 10.25 69.84 OK OK Close Normal
OT02 2019-09-22 02:27 1.02 0.19 0.00 0.00 0.00 0.00 OK OK Close Normal
IN02 2019-09-22 02:42 0.65 0.94 0.00 0.00 0.00 0.00 OK OK Close Normal
OT03 2019-09-22 02:38 0.58 0.70 227.25 0.11 10.30 69.84 OK OK Close Normal
IN01 2019-09-22 02:38 1.03 0.00 228.93 0.11 9.67 58.30 OK OK Close Normal
OT02 2019-09-22 02:28 1.01 0.19 0.00 0.00 0.00 0.00 OK OK Close Normal
OT03 2019-09-22 02:39 0.58 0.94 227.20 0.11 10.33 69.84 OK OK Close Normal
IN01 2019-09-22 02:39 1.03 0.00 229.11 0.11 9.78 58.30 OK OK Close Normal
OT02 2019-09-22 02:29 1.00 0.00 0.00 0.00 0.00 0.00 OK OK Close Normal
IN01 2019-09-22 02:40 1.03 0.33 228.43 0.11 9.61 58.30 OK OK Close Normal
OT03 2019-09-22 02:40 0.59 0.70 226.74 0.11 10.44 69.84 OK OK Close Normal
OT02 2019-09-22 02:30 1.00 0.42 0.00 0.00 0.00 0.00 OK OK Close Normal
IN01 2019-09-22 02:41 1.03 0.09 228.43 0.11 9.66 58.30 OK OK Close Normal
OT03 2019-09-22 02:41 0.60 0.98 227.45 0.11 10.37 69.84 OK OK Close Normal
OT02 2019-09-22 02:31 0.98 0.33 0.00 0.00 0.00 0.00 OK OK Close Normal
OT03 2019-09-22 02:42 0.58 0.89 227.39 0.11 10.26 69.84 OK OK Close Normal
IN01 2019-09-22 02:42 1.01 0.19 229.03 0.11 9.66 58.30 OK OK Close Normal
OT02 2019-09-22 02:32 0.98 0.42 0.00 0.00 0.00 0.00 OK OK Close Normal
IN01 2019-09-22 02:43 1.03 0.33 228.80 0.11 9.81 58.30 OK OK Close Normal
OT03 2019-09-22 02:43 0.59 0.75 227.31 0.11 10.32 69.84 OK OK Close Normal
OT02 2019-09-22 02:33 0.99 0.00 0.00 0.00 0.00 0.00 OK OK Close Normal
IN02 2019-09-22 02:48 0.65 0.75 0.00 0.00 0.00 0.00 OK OK Close Normal
OT03 2019-09-22 02:44 0.59 0.94 227.92 0.11 10.32 69.84 OK OK Close Normal
IN01 2019-09-22 02:44 1.02 0.00 229.33 0.11 9.70 58.30 OK OK Close Normal
OT02 2019-09-22 02:34 0.94 0.38 0.00 0.00 0.00 0.00 OK OK Close Normal
IN01 2019-09-22 02:45 1.03 0.23 228.80 0.11 9.65 58.30 OK OK Close Normal
OT03 2019-09-22 02:45 0.58 0.84 227.19 0.11 10.42 69.84 OK OK Close Normal
OT02 2019-09-22 02:35 0.94 0.00 0.00 0.00 0.00 0.00 OK OK Close Normal
IN02 2019-09-22 02:50 0.63 0.28 0.00 0.00 0.00 0.00 OK OK Close Normal
OT03 2019-09-22 02:46 0.58 1.22 227.26 0.11 10.24 69.84 OK OK Close Normal
IN01 2019-09-22 02:46 1.03 0.14 228.81 0.11 9.64 58.30 OK OK Close Normal
OT02 2019-09-22 02:36 0.97 0.33 0.00 0.00 0.00 0.00 OK OK Close Normal
IN01 2019-09-22 02:47 1.03 0.00 229.28 0.11 9.60 58.30 OK OK Close Normal
OT03 2019-09-22 02:47 0.65 0.84 227.42 0.11 10.35 69.84 OK OK Close Normal
OT02 2019-09-22 02:37 0.98 0.00 0.00 0.00 0.00 0.00 OK OK Close Normal
IN01 2019-09-22 02:48 1.02 0.52 229.38 0.11 9.68 58.30 OK OK Close Normal
OT03 2019-09-22 02:48 0.57 0.94 227.42 0.11 10.35 69.84 OK OK Close Normal
OT02 2019-09-22 02:38 0.97 0.33 0.00 0.00 0.00 0.00 OK OK Close Normal
IN01 2019-09-22 02:49 1.02 0.52 229.11 0.11 9.68 58.30 OK OK Close Normal
OT03 2019-09-22 02:49 0.52 0.75 227.96 0.11 10.40 69.84 OK OK Close Normal
OT02 2019-09-22 02:39 0.96 0.00 0.00 0.00 0.00 0.00 OK OK Close Normal
OT03 2019-09-22 02:50 0.51 0.75 227.39 0.11 10.38 69.84 OK OK Close Normal
IN01 2019-09-22 02:50 1.02 0.09 228.69 0.11 9.67 58.30 OK OK Close Normal
OT02 2019-09-22 02:40 0.93 0.28 0.00 0.00 0.00 0.00 OK OK Close Normal
OT03 2019-09-22 02:51 0.49 0.84 228.15 0.11 10.24 69.84 OK OK Close Normal
IN01 2019-09-22 02:51 1.01 0.19 229.32 0.11 9.73 58.30 OK OK Close Normal
OT02 2019-09-22 02:41 0.93 0.42 0.00 0.00 0.00 0.00 OK OK Close Normal
OT03 2019-09-22 02:52 0.49 0.56 227.89 0.11 10.31 69.84 OK OK Close Normal
IN01 2019-09-22 02:52 1.02 0.33 229.65 0.11 9.77 58.30 OK OK Close Normal
OT02 2019-09-22 02:42 0.94 0.38 0.00 0.00 0.00 0.00 OK OK Close Normal
IN02 2019-09-22 02:57 0.64 0.28 0.00 0.00 1.00 0.00 OK OK Close Normal
IN01 2019-09-22 02:53 1.01 0.42 229.23 0.11 9.62 58.30 OK OK Close Normal
OT03 2019-09-22 02:53 0.47 0.66 227.64 0.11 10.31 69.84 OK OK Close Normal
IN02 2019-09-22 02:58 0.64 0.89 0.00 0.00 0.00 0.00 OK OK Close Normal
OT02 2019-09-22 02:43 0.94 0.23 0.00 0.00 0.00 0.00 OK OK Close Normal
OT03 2019-09-22 02:54 0.48 0.98 227.51 0.11 10.29 69.84 OK OK Close Normal
IN01 2019-09-22 02:54 1.02 0.38 229.12 0.11 9.58 58.30 OK OK Close Normal
IN02 2019-09-22 02:59 0.62 0.56 0.00 0.00 0.00 0.00 OK OK Close Normal
OT02 2019-09-22 02:44 0.96 0.70 0.00 0.00 0.00 0.00 OK OK Close Normal
OT03 2019-09-22 02:55 0.48 0.89 227.32 0.11 10.35 69.84 OK OK Close Normal
IN01 2019-09-22 02:55 1.02 0.52 229.12 0.11 9.64 58.30 OK OK Close Normal
IN02 2019-09-22 03:00 0.63 0.38 0.00 0.00 0.00 0.00 OK OK Close Normal
OT02 2019-09-22 02:45 0.97 0.00 0.00 0.00 0.00 0.00 OK OK Close Normal
OT03 2019-09-22 02:56 0.48 1.22 227.51 0.11 10.36 69.84 OK OK Close Normal
IN01 2019-09-22 02:56 1.02 0.09 229.42 0.11 9.70 58.30 OK OK Close Normal
IN02 2019-09-22 03:01 0.61 0.56 0.00 0.00 0.00 0.00 OK OK Close Normal
OT02 2019-09-22 02:46 1.03 0.38 0.00 0.00 0.00 0.00 OK OK Close Normal
IN01 2019-09-22 02:57 1.02 0.38 229.56 0.11 9.73 58.30 OK OK Close Normal
OT03 2019-09-22 02:57 0.47 0.56 227.71 0.11 10.21 69.84 OK OK Close Normal
OT02 2019-09-22 02:47 1.02 0.28 0.00 0.00 0.00 0.00 OK OK Close Normal
IN02 2019-09-22 03:02 0.63 0.98 0.00 0.00 0.00 0.00 OK OK Close Normal
OT03 2019-09-22 02:58 0.47 0.94 227.51 0.11 10.33 69.84 OK OK Close Normal
IN01 2019-09-22 02:58 1.02 0.00 228.91 0.11 9.67 58.30 OK OK Close Normal
OT02 2019-09-22 02:48 0.95 0.47 0.00 0.00 0.00 0.00 OK OK Close Normal
OT03 2019-09-22 02:59 0.47 1.31 227.15 0.11 10.28 69.84 OK OK Close Normal
IN01 2019-09-22 02:59 1.02 0.28 228.58 0.11 9.60 58.30 OK OK Close Normal
OT02 2019-09-22 02:49 0.94 0.23 0.00 0.00 0.00 0.00 OK OK Close Normal
IN02 2019-09-22 03:04 0.63 0.70 0.00 0.00 1.00 0.00 OK OK Close Normal
OT03 2019-09-22 03:00 0.49 0.98 227.72 0.11 10.35 69.84 OK OK Close Normal
IN01 2019-09-22 03:00 1.01 0.42 229.64 0.11 9.69 58.30 OK OK Close Normal
OT02 2019-09-22 02:50 0.92 0.28 0.00 0.00 0.00 0.00 OK OK Close Normal
IN01 2019-09-22 03:01 1.01 0.09 229.17 0.11 9.62 58.30 OK OK Close Normal
OT03 2019-09-22 03:01 0.64 0.80 227.07 0.11 10.33 69.84 OK OK Close Normal
OT02 2019-09-22 02:51 0.94 0.00 0.00 0.00 0.00 0.00 OK OK Close Normal
OT03 2019-09-22 03:02 0.49 1.27 227.60 0.11 10.30 69.84 OK OK Close Normal
IN01 2019-09-22 03:02 1.02 0.09 228.92 0.11 9.69 58.30 OK OK Close Normal
OT02 2019-09-22 02:52 0.95 0.00 0.00 0.00 0.00 0.00 OK OK Close Normal
OT03 2019-09-22 03:03 0.64 0.84 226.50 0.11 10.44 69.84 OK OK Close Normal
IN01 2019-09-22 03:03 1.00 0.52 228.54 0.11 9.69 58.30 OK OK Close Normal
IN02 2019-09-22 03:08 0.63 0.09 0.00 0.00 0.00 0.00 OK OK Close Normal
OT02 2019-09-22 02:53 0.87 0.52 0.00 0.00 0.00 0.00 OK OK Close Normal
IN01 2019-09-22 03:04 1.01 0.23 228.71 0.11 9.63 58.30 OK OK Close Normal
OT03 2019-09-22 03:04 0.64 0.98 226.82 0.11 10.46 69.84 OK OK Close Normal
OT02 2019-09-22 02:54 0.89 0.19 0.00 0.00 0.00 0.00 OK OK Close Normal
OT03 2019-09-22 03:05 0.64 0.80 226.98 0.11 10.37 69.84 OK OK Close Normal
IN01 2019-09-22 03:05 1.01 0.38 228.80 0.11 9.72 58.30 OK OK Close Normal
IN02 2019-09-22 03:10 0.63 0.70 0.00 0.00 0.00 0.00 OK OK Close Normal
OT02 2019-09-22 02:55 0.89 0.00 0.00 0.00 0.00 0.00 OK OK Close Normal
OT03 2019-09-22 03:06 0.64 0.80 226.72 0.11 10.46 69.84 OK OK Close Normal
IN01 2019-09-22 03:06 1.01 0.05 228.07 0.11 9.76 58.30 OK OK Close Normal
OT02 2019-09-22 02:56 0.85 0.23 0.00 0.00 0.00 0.00 OK OK Close Normal
IN02 2019-09-22 03:11 0.63 0.70 0.00 0.00 0.00 0.00 OK OK Close Normal
IN01 2019-09-22 03:07 1.01 0.52 228.30 0.11 9.52 58.30 OK OK Close Normal
OT03 2019-09-22 03:07 0.64 0.89 227.32 0.11 10.40 69.84 OK OK Close Normal
OT02 2019-09-22 02:57 0.92 0.14 0.00 0.00 0.00 0.00 OK OK Close Normal
IN01 2019-09-22 03:08 1.01 0.14 227.92 0.11 9.69 58.30 OK OK Close Normal
OT03 2019-09-22 03:08 0.65 0.70 227.02 0.11 10.32 69.84 OK OK Close Normal
OT02 2019-09-22 02:58 0.91 0.05 0.00 0.00 0.00 0.00 OK OK Close Normal
OT03 2019-09-22 03:09 0.65 1.36 227.05 0.11 10.34 69.84 OK OK Close Normal
IN01 2019-09-22 03:09 1.01 0.47 228.16 0.11 9.75 58.30 OK OK Close Normal
OT02 2019-09-22 02:59 0.98 0.33 0.00 0.00 0.00 0.00 OK OK Close Normal
IN01 2019-09-22 03:10 1.01 0.28 229.28 0.11 9.67 58.30 OK OK Close Normal
OT03 2019-09-22 03:10 0.63 1.13 227.50 0.11 10.41 69.84 OK OK Close Normal
OT02 2019-09-22 03:00 0.89 0.52 0.00 0.00 0.00 0.00 OK OK Close Normal
IN01 2019-09-22 03:11 0.99 0.00 229.15 0.11 9.71 58.30 OK OK Close Normal
OT03 2019-09-22 03:11 0.64 1.13 227.55 0.11 10.49 69.84 OK OK Close Normal
OT02 2019-09-22 03:01 0.91 0.00 0.00 0.00 0.00 0.00 OK OK Close Normal
IN02 2019-09-22 03:16 0.62 0.80 0.00 0.00 0.00 0.00 OK OK Close Normal
IN01 2019-09-22 03:12 1.01 0.28 228.35 0.11 9.67 58.30 OK OK Close Normal
OT03 2019-09-22 03:12 0.63 0.75 226.79 0.11 10.36 69.84 OK OK Close Normal
OT02 2019-09-22 03:02 0.90 0.47 0.00 0.00 0.00 0.00 OK OK Close Normal
IN02 2019-09-22 03:17 0.60 0.47 0.00 0.00 0.00 0.00 OK OK Close Normal
IN01 2019-09-22 03:13 1.01 0.00 228.44 0.11 9.72 58.30 OK OK Close Normal
OT03 2019-09-22 03:13 0.64 0.75 227.28 0.11 10.32 69.84 OK OK Close Normal
IN02 2019-09-22 03:18 0.59 0.56 0.00 0.00 0.00 0.00 OK OK Close Normal
OT02 2019-09-22 03:03 0.88 0.23 0.00 0.00 0.00 0.00 OK OK Close Normal
IN01 2019-09-22 03:14 1.01 0.66 228.85 0.11 9.64 58.30 OK OK Close Normal
OT03 2019-09-22 03:14 0.62 0.94 227.44 0.11 10.39 69.84 OK OK Close Normal
IN02 2019-09-22 03:19 0.61 0.94 0.00 0.00 0.00 0.00 OK OK Close Normal
OT02 2019-09-22 03:04 0.87 0.52 0.00 0.00 0.00 0.00 OK OK Close Normal
OT03 2019-09-22 03:15 0.62 0.47 227.48 0.11 10.34 69.84 OK OK Close Normal
IN01 2019-09-22 03:15 1.00 0.23 228.57 0.11 9.66 58.30 OK OK Close Normal
OT02 2019-09-22 03:05 0.87 0.33 0.00 0.00 0.00 0.00 OK OK Close Normal
IN02 2019-09-22 03:20 0.62 0.80 0.00 0.00 0.00 0.00 OK OK Close Normal
OT03 2019-09-22 03:16 0.62 0.89 228.07 0.11 10.41 69.84 OK OK Close Normal
IN01 2019-09-22 03:16 1.01 0.23 229.23 0.11 9.71 58.30 OK OK Close Normal
OT02 2019-09-22 03:06 0.84 0.00 0.00 0.00 0.00 0.00 OK OK Close Normal
IN01 2019-09-22 03:17 1.01 0.19 229.24 0.11 9.60 58.30 OK OK Close Normal
OT03 2019-09-22 03:17 0.63 0.98 227.92 0.11 10.37 69.84 OK OK Close Normal
OT02 2019-09-22 03:07 0.84 0.56 0.00 0.00 0.00 0.00 OK OK Close Normal
IN02 2019-09-22 03:22 0.60 0.61 0.00 0.00 0.00 0.00 OK OK Close Normal
OT03 2019-09-22 03:18 0.62 1.22 227.75 0.11 10.45 69.84 OK OK Close Normal
IN01 2019-09-22 03:18 1.00 0.66 228.82 0.11 9.68 58.30 OK OK Close Normal
OT02 2019-09-22 03:08 0.86 0.47 0.00 0.00 0.00 0.00 OK OK Close Normal
IN02 2019-09-22 03:23 0.61 0.84 0.00 0.00 0.00 0.00 OK OK Close Normal
OT03 2019-09-22 03:19 0.62 1.03 227.45 0.11 10.41 69.84 OK OK Close Normal
IN01 2019-09-22 03:19 0.99 0.14 228.33 0.11 9.62 58.30 OK OK Close Normal
OT02 2019-09-22 03:09 0.86 0.38 0.00 0.00 0.00 0.00 OK OK Close Normal
IN01 2019-09-22 03:20 1.00 0.00 229.04 0.11 9.72 58.30 OK OK Close Normal
OT03 2019-09-22 03:20 0.60 1.08 227.64 0.11 10.37 69.85 OK OK Close Normal
OT02 2019-09-22 03:10 0.86 0.23 0.00 0.00 0.00 0.00 OK OK Close Normal
IN01 2019-09-22 03:21 1.00 0.00 228.40 0.11 9.66 58.30 OK OK Close Normal
OT03 2019-09-22 03:21 0.60 1.22 227.18 0.11 10.39 69.85 OK OK Close Normal
OT02 2019-09-22 03:11 0.85 0.00 0.00 0.00 0.00 0.00 OK OK Close Normal
OT03 2019-09-22 03:22 0.52 0.61 227.99 0.11 10.31 69.85 OK OK Close Normal
IN01 2019-09-22 03:22 1.00 0.42 228.71 0.11 9.61 58.30 OK OK Close Normal
OT02 2019-09-22 03:12 0.84 0.42 0.00 0.00 0.00 0.00 OK OK Close Normal
OT03 2019-09-22 03:23 0.45 0.70 227.64 0.11 10.25 69.85 OK OK Close Normal
IN01 2019-09-22 03:23 0.98 0.14 228.88 0.11 9.59 58.30 OK OK Close Normal
OT02 2019-09-22 03:13 0.84 0.38 0.00 0.00 0.00 0.00 OK OK Close Normal
OT03 2019-09-22 03:24 0.44 0.98 227.31 0.11 10.33 69.85 OK OK Close Normal
IN01 2019-09-22 03:24 1.00 0.14 228.12 0.11 9.71 58.30 OK OK Close Normal
OT02 2019-09-22 03:14 0.82 0.61 0.00 0.00 0.00 0.00 OK OK Close Normal
IN02 2019-09-22 03:29 0.61 0.70 0.00 0.00 0.00 0.00 OK OK Close Normal
OT03 2019-09-22 03:25 0.38 0.98 228.11 0.11 10.23 69.85 OK OK Close Normal
IN01 2019-09-22 03:25 1.00 0.14 229.12 0.11 9.72 58.30 OK OK Close Normal
OT02 2019-09-22 03:15 0.82 0.09 0.00 0.00 0.00 0.00 OK OK Close Normal
OT03 2019-09-22 03:26 0.39 0.42 227.69 0.11 10.25 69.85 OK OK Close Normal
IN01 2019-09-22 03:26 1.00 0.33 228.70 0.11 9.56 58.30 OK OK Close Normal
OT02 2019-09-22 03:16 0.84 0.23 0.00 0.00 0.00 0.00 OK OK Close Normal
OT03 2019-09-22 03:27 0.38 0.84 227.83 0.11 10.30 69.85 OK OK Close Normal
IN01 2019-09-22 03:27 1.00 0.19 228.98 0.11 9.72 58.30 OK OK Close Normal
OT02 2019-09-22 03:17 0.86 0.38 0.00 0.00 0.00 0.00 OK OK Close Normal
IN01 2019-09-22 03:28 1.00 0.28 229.29 0.11 9.73 58.30 OK OK Close Normal
OT03 2019-09-22 03:28 0.38 0.66 227.83 0.11 10.31 69.85 OK OK Close Normal
IN02 2019-09-22 03:33 0.60 0.98 0.00 0.00 0.00 0.00 OK OK Close Normal
OT02 2019-09-22 03:18 0.84 0.23 0.00 0.00 0.00 0.00 OK OK Close Normal
OT03 2019-09-22 03:29 0.38 0.84 227.43 0.11 10.27 69.85 OK OK Close Normal
IN01 2019-09-22 03:29 0.99 0.00 228.41 0.11 9.70 58.30 OK OK Close Normal
IN02 2019-09-22 03:34 0.60 0.94 0.00 0.00 0.00 0.00 OK OK Close Normal
OT02 2019-09-22 03:19 0.85 0.52 0.00 0.00 0.00 0.00 OK OK Close Normal
OT03 2019-09-22 03:30 0.37 0.89 227.47 0.11 10.18 69.85 OK OK Close Normal
IN01 2019-09-22 03:30 0.99 0.28 228.32 0.11 9.64 58.30 OK OK Close Normal
IN02 2019-09-22 03:35 0.60 0.98 0.00 0.00 0.00 0.00 OK OK Close Normal
OT02 2019-09-22 03:20 0.84 0.00 0.00 0.00 0.00 0.00 OK OK Close Normal
OT03 2019-09-22 03:31 0.38 0.84 227.52 0.11 10.31 69.85 OK OK Close Normal
IN01 2019-09-22 03:31 0.99 0.38 228.74 0.11 9.56 58.30 OK OK Close Normal
OT02 2019-09-22 03:21 0.82 0.52 0.00 0.00 0.00 0.00 OK OK Close Normal
OT03 2019-09-22 03:32 0.37 0.98 227.82 0.11 10.28 69.85 OK OK Close Normal
IN01 2019-09-22 03:32 0.97 0.09 229.02 0.11 9.59 58.30 OK OK Close Normal
OT02 2019-09-22 03:22 0.83 0.33 0.00 0.00 0.00 0.00 OK OK Close Normal
IN02 2019-09-22 03:37 0.60 0.80 0.00 0.00 0.00 0.00 OK OK Close Normal
IN01 2019-09-22 03:33 0.99 0.14 229.89 0.11 9.65 58.31 OK OK Close Normal
OT03 2019-09-22 03:33 0.36 1.03 228.19 0.11 10.30 69.85 OK OK Close Normal
OT02 2019-09-22 03:23 0.83 0.00 0.00 0.00 0.00 0.00 OK OK Close Normal
IN02 2019-09-22 03:38 0.60 0.66 0.00 0.00 0.00 0.00 OK OK Close Normal
OT03 2019-09-22 03:34 0.36 0.84 227.54 0.11 10.32 69.85 OK OK Close Normal
IN01 2019-09-22 03:34 0.99 0.00 229.17 0.11 9.59 58.31 OK OK Close Normal
OT02 2019-09-22 03:24 0.78 0.61 0.00 0.00 0.00 0.00 OK OK Close Normal
OT03 2019-09-22 03:35 0.34 1.22 227.32 0.11 10.26 69.85 OK OK Close Normal
IN01 2019-09-22 03:35 0.99 0.00 228.93 0.11 9.68 58.31 OK OK Close Normal
OT02 2019-09-22 03:25 0.82 0.28 0.00 0.00 0.00 0.00 OK OK Close Normal
IN02 2019-09-22 03:40 0.57 0.98 0.00 0.00 0.00 0.00 OK OK Close Normal
IN01 2019-09-22 03:36 0.99 0.38 229.44 0.11 9.60 58.31 OK OK Close Normal
OT03 2019-09-22 03:36 0.35 0.98 227.29 0.11 10.31 69.85 OK OK Close Normal
OT02 2019-09-22 03:26 0.81 0.28 0.00 0.00 0.00 0.00 OK OK Close Normal
OT03 2019-09-22 03:37 0.37 0.80 227.56 0.11 10.21 69.85 OK OK Close Normal
IN01 2019-09-22 03:37 0.99 0.00 228.67 0.11 9.70 58.31 OK OK Close Normal
OT02 2019-09-22 03:27 0.81 0.33 0.00 0.00 0.00 0.00 OK OK Close Normal
OT03 2019-09-22 03:38 0.35 1.03 227.21 0.11 10.25 69.85 OK OK Close Normal
IN01 2019-09-22 03:38 0.99 0.38 227.95 0.11 9.67 58.31 OK OK Close Normal
OT02 2019-09-22 03:28 0.78 0.00 0.00 0.00 0.00 0.00 OK OK Close Normal
IN02 2019-09-22 03:43 0.57 0.75 0.00 0.00 0.00 0.00 OK OK Close Normal
OT03 2019-09-22 03:39 0.35 0.84 227.23 0.11 10.25 69.85 OK OK Close Normal
IN01 2019-09-22 03:39 0.99 0.19 227.88 0.11 9.57 58.31 OK OK Close Normal
OT02 2019-09-22 03:29 0.82 0.00 0.00 0.00 0.00 0.00 OK OK Close Normal
OT03 2019-09-22 03:40 0.34 1.22 228.09 0.11 10.21 69.85 OK OK Close Normal
IN01 2019-09-22 03:40 0.99 0.38 228.87 0.11 9.63 58.31 OK OK Close Normal
OT02 2019-09-22 03:30 0.77 0.09 0.00 0.00 0.00 0.00 OK OK Close Normal
IN01 2019-09-22 03:41 0.97 0.09 229.25 0.11 9.59 58.31 OK OK Close Normal
OT03 2019-09-22 03:41 0.33 0.75 228.16 0.11 10.27 69.85 OK OK Close Normal
OT02 2019-09-22 03:31 0.77 0.42 0.00 0.00 0.00 0.00 OK OK Close Normal
IN02 2019-09-22 03:46 0.58 0.42 0.00 0.00 0.00 0.00 OK OK Close Normal
OT03 2019-09-22 03:42 0.32 0.98 227.47 0.11 10.39 69.85 OK OK Close Normal
IN01 2019-09-22 03:42 0.98 0.47 228.71 0.11 9.67 58.31 OK OK Close Normal
OT02 2019-09-22 03:32 0.79 0.23 0.00 0.00 0.00 0.00 OK OK Close Normal
OT03 2019-09-22 03:43 0.33 0.98 227.10 0.11 10.33 69.85 OK OK Close Normal
IN01 2019-09-22 03:43 0.99 0.00 228.29 0.11 9.58 58.31 OK OK Close Normal
OT02 2019-09-22 03:33 1.02 0.33 0.00 0.00 0.00 0.00 OK OK Close Normal
OT03 2019-09-22 03:44 0.34 0.89 227.64 0.11 10.16 69.85 OK OK Close Normal
IN01 2019-09-22 03:44 0.98 0.00 228.88 0.11 9.66 58.31 OK OK Close Normal
OT02 2019-09-22 03:34 1.06 0.28 0.00 0.00 0.00 0.00 OK OK Close Normal
IN01 2019-09-22 03:45 0.99 0.38 229.01 0.11 9.65 58.31 OK OK Close Normal
OT03 2019-09-22 03:45 0.31 1.08 227.87 0.11 10.22 69.85 OK OK Close Normal
OT02 2019-09-22 03:35 0.80 0.19 0.00 0.00 0.00 0.00 OK OK Close Normal
IN01 2019-09-22 03:46 0.98 0.09 229.61 0.11 9.61 58.31 OK OK Close Normal
OT03 2019-09-22 03:46 0.31 0.80 228.86 0.11 10.25 69.85 OK OK Close Normal
OT02 2019-09-22 03:36 0.79 0.42 0.00 0.00 0.00 0.00 OK OK Close Normal
OT03 2019-09-22 03:47 0.31 0.98 228.61 0.11 10.23 69.85 OK OK Close Normal
IN01 2019-09-22 03:47 0.98 0.00 229.11 0.11 9.62 58.31 OK OK Close Normal
OT02 2019-09-22 03:37 0.81 0.00 0.00 0.00 0.00 0.00 OK OK Close Normal
IN01 2019-09-22 03:48 0.98 0.28 228.68 0.11 9.64 58.31 OK OK Close Normal
OT03 2019-09-22 03:48 0.30 1.08 228.09 0.11 10.26 69.85 OK OK Close Normal
OT02 2019-09-22 03:38 0.83 0.00 0.00 0.00 0.00 0.00 OK OK Close Normal